• Join FlightAware (Why Join?)
  • Login
  • US Flag 
01:37PM EST


 

Airport Tracker/Info


-or-


 

Live Flight TrackerFlight Track Log ✈ N868DB ✈ 02-May-2014 ✈ KAPA - KDAL

Flight Track Log - Related Links

Times and Time Zones

All times are in EDT time to prevent confusion due to time zone crossing. See the N868DB flight status page for this flight to view local times or setup timezone preferences in your user account.

Time Position Orientation Groundspeed Altitude Reporting Facility
EDT Latitude Longitude Course Direction KTS MPH feet Rate Location/Type
04:51PM 39.6167 -104.8667 252° West 224 258 7,600  Level Denver TRACON
04:52PM 39.6000 -104.9333 252° West 286 329 9,600 2,000 Climbing Denver TRACON
04:53PM 39.5253 -104.9461 188° South 324 373 11,000 764 Climbing Denver Center
04:54PM 39.4153 -104.9394 177° South 369 425 11,000 1,104 Level Denver Center
04:55PM 39.3189 -104.8922 159° South 370 426 13,300 2,226 Climbing Denver Center
04:56PM 39.2342 -104.8544 161° South 376 433 15,600 2,274 Climbing Denver Center
04:57PM 39.1164 -104.8008 161° South 402 463 18,000 2,592 Climbing Denver Center
04:58PM 38.9836 -104.7394 160° South 423 487 21,000 2,341 Climbing Denver Center
04:59PM 38.8919 -104.6986 161° South 431 496 22,800 1,935 Climbing Denver Center
05:00PM 38.7519 -104.6306 159° South 443 510 25,000 2,016 Climbing Denver Center
05:01PM 38.6292 -104.5767 161° South 462 532 27,000 1,645 Climbing Denver Center
05:03PM 38.3811 -104.4486 158° South 486 559 30,100 1,645 Climbing Denver Center
05:04PM 38.2483 -104.3258 144° Southeast 494 568 32,100 1,839 Climbing Denver Center
05:05PM 38.1372 -104.2261 145° Southeast 493 567 33,900 1,694 Climbing Denver Center
05:06PM 38.0278 -104.1256 144° Southeast 487 560 35,600 1,403 Climbing Denver Center
05:07PM 37.9175 -104.0253 144° Southeast 488 562 36,800 1,161 Climbing Denver Center
05:08PM 37.8042 -103.9228 144° Southeast 501 577 38,000 1,306 Climbing Denver Center
05:09PM 37.6689 -103.8036 145° Southeast 497 572 39,500 1,248 Climbing Denver Center
05:10PM 37.5589 -103.7022 144° Southeast 495 570 40,600 657 Climbing Denver Center
05:12PM 37.4569 -103.6111 145° Southeast 493 567 41,000 176 Climbing Denver Center
05:13PM 37.3111 -103.4825 145° Southeast 497 572 41,000  Level Denver Center
05:14PM 37.1839 -103.3711 145° Southeast 497 572 41,000  Level Denver Center
05:15PM 37.0761 -103.2744 144° Southeast 498 573 41,000  Level Denver Center
05:16PM 36.9661 -103.1781 145° Southeast 501 577 41,000  Level Albuquerque Center
05:17PM 36.8325 -103.0622 145° Southeast 500 575 41,000  Level Albuquerque Center
05:18PM 36.7172 -102.9617 145° Southeast 500 575 41,000  Level Albuquerque Center
05:19PM 36.6119 -102.8700 145° Southeast 499 574 41,000  Level Albuquerque Center
05:20PM 36.4992 -102.7711 145° Southeast 499 574 41,000  Level Albuquerque Center
05:21PM 36.3628 -102.6536 145° Southeast 499 574 41,000  Level Albuquerque Center
05:22PM 36.2506 -102.5567 145° Southeast 497 572 41,000  Level Albuquerque Center
05:23PM 36.1367 -102.4606 146° Southeast 494 568 41,000  Level Albuquerque Center
05:24PM 36.0250 -102.3644 145° Southeast 494 568 41,000  Level Albuquerque Center
05:25PM 35.9100 -102.2689 146° Southeast 494 568 41,000  Level Albuquerque Center
05:26PM 35.7981 -102.1728 145° Southeast 494 568 41,000  Level Albuquerque Center
05:27PM 35.6642 -102.0594 145° Southeast 489 563 41,000  Level Albuquerque Center
05:28PM 35.5517 -101.9656 146° Southeast 490 564 41,000  Level Albuquerque Center
05:29PM 35.4436 -101.8722 145° Southeast 489 563 41,000  Level Albuquerque Center
05:30PM 35.3308 -101.7775 146° Southeast 488 562 41,000  Level Albuquerque Center
05:31PM 35.2242 -101.6436 134° Southeast 502 578 41,000  Level Albuquerque Center
05:32PM 35.1933 -101.4897 104° East 478 550 41,000  Level Albuquerque Center
05:33PM 35.1572 -101.3339 106° East 477 549 41,000  Level Albuquerque Center
05:34PM 35.1239 -101.1817 105° East 477 549 41,000  Level Albuquerque Center
05:35PM 35.0894 -101.0267 105° East 476 548 41,000  Level Albuquerque Center
05:36PM 35.0486 -100.8417 105° East 476 548 41,000  Level Albuquerque Center
05:37PM 35.0139 -100.6858 105° East 476 548 41,000  Level Albuquerque Center
05:38PM 34.9800 -100.5311 105° East 476 548 41,000  Level Albuquerque Center
05:39PM 34.9433 -100.3728 106° East 475 547 41,000  Level Albuquerque Center
05:40PM 34.9083 -100.2189 105° East 475 547 41,000  Level Albuquerque Center
05:41PM 34.8606 -100.0689 111° Southeast 476 548 41,000  Level Albuquerque Center
05:42PM 34.7747 -99.9056 123° Southeast 479 551 41,000  Level Albuquerque Center
05:44PM 34.7036 -99.7697 122° Southeast 479 551 41,000 -97 Level Albuquerque Center
05:45PM 34.6308 -99.6336 123° Southeast 479 551 40,800 -871 Descending Albuquerque Center
05:46PM 34.5581 -99.4975 123° Southeast 479 551 39,200 -1,510 Descending Albuquerque Center
05:47PM 34.4569 -99.3083 123° Southeast 479 551 37,000 -874 Descending Fort Worth Center
05:48PM 34.3728 -99.1500 123° Southeast 471 542 37,000  Level Fort Worth Center
05:49PM 34.2997 -99.0172 124° Southeast 471 542 37,000 -339 Level Fort Worth Center
05:50PM 34.2269 -98.8800 123° Southeast 480 552 36,300 -1,452 Descending Fort Worth Center
05:51PM 34.1550 -98.7472 123° Southeast 478 550 34,000 -2,274 Descending Fort Worth Center
05:52PM 34.0869 -98.6197 123° Southeast 469 540 31,600 -2,613 Descending Fort Worth Center
05:53PM 33.9997 -98.4606 123° Southeast 473 544 28,600 -2,688 Descending Fort Worth Center
05:54PM 33.9256 -98.3253 123° Southeast 480 552 26,000 -2,640 Descending Fort Worth Center
05:55PM 33.8481 -98.1833 123° Southeast 478 550 23,100 -2,758 Descending Fort Worth Center
05:56PM 33.7747 -98.0506 124° Southeast 457 526 20,300 -2,855 Descending Fort Worth Center
05:57PM 33.7047 -97.9236 124° Southeast 441 507 17,200 -3,000 Descending Fort Worth Center
05:58PM 33.6450 -97.8164 124° Southeast 405 466 14,100 -3,048 Descending Fort Worth Center
05:59PM 33.5839 -97.7083 124° Southeast 377 434 10,900 -1,984 Descending Fort Worth Center
06:01PM 33.5236 -97.6025 124° Southeast 350 403 10,000 -968 Descending Fort Worth Center
06:02PM 33.4764 -97.5156 123° Southeast 317 365 8,900 -1,403 Descending Fort Worth Center
06:03PM 33.4247 -97.4411 130° Southeast 298 343 7,100 -1,776 Descending Fort Worth Center
06:04PM 33.3875 -97.3492 116° Southeast 292 336 5,200 -1,008 Descending Fort Worth Center
06:05PM 33.3664 -97.2622 106° East 277 319 5,000 -97 Descending Fort Worth Center
06:06PM 33.3425 -97.1639 106° East 290 334 5,000  Level Fort Worth Center
06:07PM 33.3111 -97.0764 113° Southeast 285 328 5,000 -145 Level Fort Worth Center
06:08PM 33.2631 -97.0017 128° Southeast 277 319 4,700 -484 Descending Fort Worth Center
06:09PM 33.2153 -96.9219 126° Southeast 277 319 4,000 -339 Descending Fort Worth Center
06:10PM 33.1658 -96.8478 129° Southeast 277 319 4,000  Level Fort Worth Center
06:11PM 33.0981 -96.8094 155° Southeast 272 313 4,000  Level Fort Worth Center
06:12PM 33.0269 -96.7692 155° Southeast 267 307 4,000  Level Fort Worth Center
06:13PM 32.9606 -96.7297 154° Southeast 265 305 4,000  Level Fort Worth Center
06:14PM 32.8933 -96.7167 171° South 229 264 4,000 -240 Level Fort Worth Center
06:15PM 32.8411 -96.7228 186° South 190 219 3,500 -435 Descending Fort Worth Center
06:16PM 32.7931 -96.7464 202° Southwest 178 205 3,100 -581 Descending Fort Worth Center
06:17PM 32.7869 -96.7875 260° West 155 178 2,300 -823 Descending Fort Worth Center
06:18PM 32.8128 -96.8189 314° West 126 145 1,400 -774 Descending Fort Worth Center
06:19PM 32.8306 -96.8400 315° West 118 136 700 -677 Descending Fort Worth Center